TimePST,TemperatureF,Dew PointF,Humidity,Sea Level PressureIn,VisibilityMPH,Wind Direction,Wind SpeedMPH,Gust SpeedMPH,PrecipitationIn,Events,Conditions,WindDirDegrees,DateUTC
12:53 AM,28.9,19.9,69,30.10,10.0,South,4.6,-,N/A,,Clear,170,2013-12-06 08:53:00
1:53 AM,28.0,19.9,72,30.11,10.0,South,4.6,-,N/A,,Clear,170,2013-12-06 09:53:00
2:53 AM,28.9,17.1,61,30.11,10.0,Calm,Calm,-,N/A,,Clear,0,2013-12-06 10:53:00
3:53 AM,28.0,15.1,58,30.10,10.0,Calm,Calm,-,N/A,,Clear,0,2013-12-06 11:53:00
4:53 AM,27.0,17.1,66,30.11,10.0,Calm,Calm,-,N/A,,Clear,0,2013-12-06 12:53:00
5:53 AM,25.0,19.0,78,30.13,10.0,Calm,Calm,-,N/A,,Clear,0,2013-12-06 13:53:00
6:53 AM,25.0,19.0,78,30.14,10.0,SSE,3.5,-,N/A,,Clear,160,2013-12-06 14:53:00
7:53 AM,30.0,21.0,69,30.15,10.0,Calm,Calm,-,N/A,,Clear,0,2013-12-06 15:53:00
8:53 AM,34.0,18.0,52,30.16,10.0,NE,4.6,-,N/A,,Clear,40,2013-12-06 16:53:00
9:53 AM,37.9,18.0,45,30.16,10.0,NNE,3.5,-,N/A,,Clear,30,2013-12-06 17:53:00
10:53 AM,42.1,21.0,43,30.16,10.0,Variable,3.5,-,N/A,,Clear,0,2013-12-06 18:53:00
11:53 AM,46.0,21.9,39,30.12,10.0,NNE,6.9,-,N/A,,Clear,30,2013-12-06 19:53:00
12:53 PM,50.0,27.0,41,30.08,10.0,WSW,16.1,19.6,N/A,,Partly Cloudy,240,2013-12-06 20:53:00
1:53 PM,50.0,27.0,41,30.06,10.0,WSW,16.1,-,N/A,,Clear,240,2013-12-06 21:53:00
2:53 PM,48.9,27.0,43,30.05,10.0,WSW,16.1,-,N/A,,Clear,240,2013-12-06 22:53:00
3:53 PM,48.0,27.0,44,30.05,10.0,SW,18.4,-,N/A,,Clear,220,2013-12-06 23:53:00
4:53 PM,45.0,28.0,52,30.06,10.0,SW,18.4,-,N/A,,Clear,220,2013-12-07 00:53:00
5:53 PM,44.1,32.0,63,30.07,10.0,WSW,12.7,-,N/A,,Clear,240,2013-12-07 01:53:00
6:53 PM,43.0,32.0,65,30.09,10.0,West,9.2,-,N/A,,Clear,260,2013-12-07 02:53:00
7:53 PM,41.0,32.0,70,30.08,10.0,Calm,Calm,-,N/A,,Clear,0,2013-12-07 03:53:00
8:53 PM,39.9,32.0,73,30.07,10.0,West,11.5,-,N/A,,Clear,270,2013-12-07 04:53:00
9:53 PM,39.9,32.0,73,30.07,10.0,West,15.0,-,N/A,,Clear,270,2013-12-07 05:53:00
10:53 PM,39.9,30.9,70,30.06,10.0,West,8.1,-,N/A,,Clear,260,2013-12-07 06:53:00
11:53 PM,39.9,30.9,70,30.05,10.0,WSW,6.9,-,N/A,,Clear,250,2013-12-07 07:53:00